Thunder radar more information blitzortung!


Varsler for Snø/Is  rain snow radar



Regn Fra: 24-09-2018 23:00 Til: 25-09-2018 22:59 advarsel for: Regn Level: Orange info button
Snø/Is Fra: 24-09-2018 23:00 Til: 25-09-2018 22:59 advarsel for: Snø/Is Level: Gul info button

Weather Underground History siden Text

Daglig sammendrag for September 25, 2018 enheter:  Metric    Engelsk   Begge
« Forrige Dag
Neste Dag »
Daglig Weekly Månedlig Årlig Custom
  Gjeldene: høy: Lav: Snitt:
Temperatur: -14 °C -17.8 °C -15.9 °C -15.1 °C
Duggpunkt: -14.4 °C -17.8 °C -16.3 °C -15.5 °C
Luftfuktighet: 95 % Humidity % 94 % 94 %
Vind: 11.9 km/h 0 km/h 0 km/h 8.2 km/h
Vindkast: 7.7 km/h 0 km/h - -
Vind:South - - SE
Trykk: 34875.8 hPa 0 hPa 34872.4 hPa -
Nedbør: 15.24 mm      
Historical Graphs
 
 
Tabelldata for September 25, 2018
Tid Temperatur Duggpunkt Trykk Vind Vind Vindkast Luftfuktighet Regn Intensitet (Time)
-17.8 °C -17.8 °C 0 hPa Calm     Humidity % 0 mm
00:00 -15.3 °C -15.8 °C 34872.4 hPa East 2.6 km/h 5.1 km/h 94 % 0 mm
00:05 -15.4 °C -15.9 °C 34875.8 hPa Calm   2.6 km/h 94 % 5.08 mm
00:10 -15.5 °C -16 °C 34875.8 hPa East 2.6 km/h 5.1 km/h 94 % 0 mm
00:14 -15.6 °C -16.1 °C 34875.8 hPa East 6 km/h 2.3 km/h 94 % 5.08 mm
00:19 -15.7 °C -16.2 °C 34879.2 hPa East 9 km/h 3.9 km/h 94 % 5.08 mm
00:24 -15.7 °C -16.2 °C 34879.2 hPa East 9 km/h 6.3 km/h 95 % 5.08 mm
00:29 -15.8 °C -16.2 °C 34879.2 hPa East 9 km/h 2.6 km/h 95 % 5.08 mm
00:34 -15.8 °C -16.2 °C 34879.2 hPa East 9 km/h 5.5 km/h 95 % 5.08 mm
00:39 -15.8 °C -16.2 °C 34875.8 hPa East 9 km/h 3.4 km/h 95 % 5.08 mm
00:44 -15.8 °C -16.2 °C 34875.8 hPa East 9 km/h 2.6 km/h 95 % 5.08 mm
00:49 -15.9 °C -16.3 °C 34879.2 hPa East 9 km/h 5 km/h 95 % 5.08 mm
00:54 -15.9 °C -16.3 °C 34879.2 hPa East 9 km/h 2.1 km/h 95 % 5.08 mm
00:59 -15.9 °C -16.3 °C 34879.2 hPa East 9 km/h 1.8 km/h 95 % 5.08 mm
01:04 -15.9 °C -16.3 °C 34879.2 hPa East 6 km/h 3.9 km/h 95 % 5.08 mm
01:09 -15.8 °C -16.2 °C 34879.2 hPa East 6 km/h 3.1 km/h 95 % 0 mm
01:14 -15.8 °C -16.2 °C 34879.2 hPa East 6 km/h 3.7 km/h 95 % 0 mm
01:19 -15.7 °C -16.1 °C 34882.6 hPa East 6 km/h 1.8 km/h 95 % 0 mm
01:24 -15.6 °C -16 °C 34882.6 hPa East 6 km/h 2.9 km/h 95 % 0 mm
01:29 -15.4 °C -15.8 °C 34889.3 hPa East 6 km/h 1.6 km/h 95 % 0 mm
01:34 -15.3 °C -15.7 °C 34886 hPa East 6 km/h 0.5 km/h 95 % 0 mm
01:39 -15.3 °C -15.7 °C 34886 hPa East 6 km/h   95 % 0 mm
01:44 -15.3 °C -15.7 °C 34879.2 hPa East 6 km/h 4.2 km/h 95 % 0 mm
01:49 -15.3 °C -15.7 °C 34879.2 hPa East 9 km/h 6.9 km/h 95 % 0 mm
01:54 -15.2 °C -15.7 °C 34882.6 hPa East 9 km/h 3.4 km/h 95 % 0 mm
01:59 -15.2 °C -15.6 °C 34882.6 hPa East 9 km/h 3.9 km/h 95 % 0 mm
02:04 -15.1 °C -15.5 °C 34886 hPa SSW 9 km/h 3.9 km/h 95 % 0 mm
02:09 -15.1 °C -15.4 °C 34886 hPa SSW 9 km/h 2.1 km/h 95 % 0 mm
02:14 -15 °C -15.4 °C 34886 hPa SSW 9 km/h 0.5 km/h 95 % 0 mm
02:19 -14.9 °C -15.4 °C 34886 hPa SSW 6 km/h 1.6 km/h 95 % 0 mm
02:24 -14.9 °C -15.4 °C 34886 hPa SSW 6 km/h 3.4 km/h 95 % 0 mm
02:29 -14.9 °C -15.4 °C 34886 hPa SSW 6 km/h 1 km/h 95 % 0 mm
02:34 -15.1 °C -15.4 °C 34886 hPa SSW 6 km/h 0.8 km/h 95 % 0 mm
02:39 -15.2 °C -15.6 °C 34892.7 hPa SSW 3.1 km/h   95 % 0 mm
02:44 -15.2 °C -15.6 °C 34892.7 hPa SSW 3.1 km/h 2.1 km/h 95 % 0 mm
02:49 -15.2 °C -15.7 °C 34892.7 hPa SSW 6 km/h 3.1 km/h 95 % 0 mm
02:54 -15.2 °C -15.6 °C 34896.1 hPa SSW 6 km/h 2.1 km/h 95 % 0 mm
02:59 -15.2 °C -15.7 °C 34896.1 hPa SSW 6 km/h 1.3 km/h 95 % 0 mm
03:04 -15.2 °C -15.6 °C 34892.7 hPa SSW 6 km/h 3.4 km/h 95 % 0 mm
03:09 -15.2 °C -15.6 °C 34892.7 hPa SSW 9 km/h 3.1 km/h 95 % 0 mm
03:14 -15.1 °C -15.4 °C 34889.3 hPa SSW 9 km/h 0.3 km/h 96 % 0 mm
03:19 -14.9 °C -15.3 °C 34889.3 hPa SSW 6 km/h   96 % 0 mm
03:24 -15.1 °C -15.4 °C 34889.3 hPa South 9 km/h 2.3 km/h 96 % 0 mm
03:29 -15.1 °C -15.5 °C 34886 hPa South 9 km/h 2.9 km/h 95 % 0 mm
03:34 -15.1 °C -15.5 °C 34882.6 hPa South 9 km/h 2.9 km/h 95 % 0 mm
03:39 -15.1 °C -15.4 °C 34879.2 hPa South 9 km/h 3.9 km/h 96 % 0 mm
03:44 -15.1 °C -15.5 °C 34882.6 hPa South 9 km/h 3.1 km/h 95 % 0 mm
03:49 -14.9 °C -15.3 °C 34886 hPa SSE 11.9 km/h 8.5 km/h 95 % 0 mm
03:54 -14.8 °C -15.2 °C 34889.3 hPa SSE 11.9 km/h 7.7 km/h 96 % 0 mm
03:59 -14.8 °C -15.2 °C 34889.3 hPa SE 11.9 km/h 2.9 km/h 95 % 0 mm
04:04 -14.8 °C -15.2 °C 34889.3 hPa SSE 11.9 km/h 5 km/h 95 % 0 mm
04:09 -14.9 °C -15.3 °C 34886 hPa SE 11.9 km/h 4.3 km/h 95 % 0 mm
04:14 -14.9 °C -15.3 °C 34886 hPa SE 11.9 km/h 2.3 km/h 95 % 0 mm
04:19 -15 °C -15.4 °C 34886 hPa SE 9 km/h 4.3 km/h 95 % 0 mm
04:24 -14.9 °C -15.3 °C 34886 hPa South 9 km/h 8.9 km/h 95 % 0 mm
04:29 -14.8 °C -15.2 °C 34886 hPa South 15 km/h 9.8 km/h 95 % 0 mm
04:34 -14.6 °C -15 °C 34886 hPa SSE 15 km/h 9 km/h 95 % 0 mm
04:39 -14.5 °C -14.9 °C 34889.3 hPa SSE 15 km/h 7.7 km/h 95 % 0 mm
04:44 -14.4 °C -14.8 °C 34889.3 hPa SSE 15 km/h 3.7 km/h 95 % 5.08 mm
04:49 -14.3 °C -14.8 °C 34889.3 hPa SSE 15 km/h 2.1 km/h 94 % 5.08 mm
04:54 -14.3 °C -14.8 °C 34889.3 hPa SSE 9 km/h 5 km/h 94 % 10.16 mm
04:59 -14.2 °C -14.6 °C 34886 hPa SE 9 km/h 3.9 km/h 95 % 10.16 mm
05:04 -14.2 °C -14.7 °C 34882.6 hPa SE 9 km/h 3.4 km/h 94 % 10.16 mm
05:09 -14.2 °C -14.7 °C 34882.6 hPa SE 9 km/h 1.8 km/h 94 % 10.16 mm
05:14 -14.2 °C -14.7 °C 34882.6 hPa SE 9 km/h 2.6 km/h 94 % 10.16 mm
05:19 -14.2 °C -14.7 °C 34879.2 hPa SE 6 km/h 2.3 km/h 94 % 10.16 mm
05:24 -14.2 °C -14.7 °C 34879.2 hPa SE 6 km/h 1.3 km/h 94 % 10.16 mm
05:29 -14.2 °C -14.6 °C 34879.2 hPa SE 9 km/h 1.6 km/h 95 % 10.16 mm
05:34 -14.1 °C -14.5 °C 34879.2 hPa SE 9 km/h 3.7 km/h 95 % 10.16 mm
05:39 -14.1 °C -14.5 °C 34879.2 hPa South 9 km/h 5 km/h 95 % 10.16 mm
05:44 -14 °C -14.4 °C 34875.8 hPa South 11.9 km/h 7.7 km/h 95 % 5.08 mm
Bernervegen Værstasjon
Compliments of Weather Underground - 2 mb

Script utviklet av  Jim McMurry - jmcmurry@mwt.net Tilpasset for tamplaten av  Wim van der Kuil - Leuven-Template.eu

Du finner vår vær info også på:

European Weather Network

WeatherCloud

Weather Underground

AWEKAS

HAMweather, WeatherForYou, PWS Weather

Utrustning vi bruker:

vær-station
Davis VP2

vær-programmet
Weather Display

Davis VP2

Weather Display